createdAt,value
2017-12-05T00:00:52.750Z,62.27
2017-12-05T00:03:28.866Z,63.20
2017-12-05T00:06:00.325Z,64.31
2017-12-05T00:08:32.642Z,64.89
2017-12-05T00:11:02.469Z,63.57
2017-12-05T00:13:36.374Z,62.44
2017-12-05T00:16:07.313Z,62.48
2017-12-05T00:18:39.802Z,63.20
2017-12-05T00:21:13.255Z,63.22
2017-12-05T00:23:58.528Z,63.73
2017-12-05T00:26:32.934Z,63.51
2017-12-05T00:29:06.412Z,62.52
2017-12-05T00:31:40.254Z,62.15
2017-12-05T00:34:12.381Z,62.25
2017-12-05T00:36:44.630Z,61.76
2017-12-05T00:39:14.706Z,62.38
2017-12-05T00:41:46.322Z,62.44
2017-12-05T00:44:18.359Z,61.90
2017-12-05T00:46:53.557Z,62.11
2017-12-05T00:49:23.431Z,61.89
2017-12-05T00:51:57.593Z,62.43
2017-12-05T00:54:35.472Z,62.93
2017-12-05T00:57:07.371Z,63.03
2017-12-05T00:59:38.780Z,64.18
2017-12-05T01:02:09.433Z,64.26
2017-12-05T01:04:43.256Z,63.72
2017-12-05T01:07:13.859Z,62.78
2017-12-05T01:09:49.367Z,63.15
2017-12-05T01:12:21.401Z,62.74
2017-12-05T01:14:59.443Z,62.48
2017-12-05T01:17:31.949Z,62.85
2017-12-05T01:20:07.701Z,62.96
2017-12-05T01:22:37.440Z,62.63
2017-12-05T01:25:14.134Z,62.35
2017-12-05T01:27:47.775Z,62.08
2017-12-05T01:30:18.043Z,62.17
2017-12-05T01:32:49.594Z,62.17
2017-12-05T01:35:26.467Z,61.40
2017-12-05T01:37:59.390Z,61.10
2017-12-05T01:40:31.610Z,61.40
2017-12-05T01:43:03.309Z,62.07
2017-12-05T01:45:42.170Z,61.76
2017-12-05T01:48:16.502Z,61.70
2017-12-05T01:50:48.277Z,61.42
2017-12-05T01:53:22.319Z,62.13
2017-12-05T01:55:53.611Z,61.72
2017-12-05T01:58:24.732Z,61.97
2017-12-05T02:00:55.259Z,62.04
2017-12-05T02:03:28.392Z,62.40
2017-12-05T02:06:09.200Z,62.63
2017-12-05T02:08:41.788Z,62.62
2017-12-05T02:11:14.660Z,62.34
2017-12-05T02:13:46.156Z,64.14
2017-12-05T02:16:18.107Z,64.17
2017-12-05T02:18:50.428Z,63.31
2017-12-05T02:21:28.810Z,62.51
2017-12-05T02:23:59.619Z,62.49
2017-12-05T02:26:32.794Z,62.49
2017-12-05T02:29:04.469Z,62.09
2017-12-05T02:31:37.541Z,61.39
2017-12-05T02:34:09.653Z,60.89
2017-12-05T02:36:41.245Z,61.42
2017-12-05T02:39:12.391Z,62.10
2017-12-05T02:41:45.777Z,64.05
2017-12-05T02:44:16.930Z,64.83
2017-12-05T02:46:54.581Z,65.12
2017-12-05T02:49:28.006Z,65.13
2017-12-05T02:52:00.834Z,64.66
2017-12-05T02:54:33.381Z,64.11
2017-12-05T02:57:06.861Z,63.72
2017-12-05T02:59:39.328Z,63.43
2017-12-05T03:02:14.329Z,63.16
2017-12-05T03:04:46.120Z,62.83
2017-12-05T03:07:18.979Z,61.44
2017-12-05T03:09:51.652Z,61.52
2017-12-05T03:12:25.361Z,61.89
2017-12-05T03:14:56.456Z,61.71
2017-12-05T03:17:28.499Z,62.13
2017-12-05T03:19:58.790Z,61.81
2017-12-05T03:22:31.337Z,62.08
2017-12-05T03:25:02.110Z,62.52
2017-12-05T03:27:33.605Z,62.83
2017-12-05T03:30:05.920Z,62.47
2017-12-05T03:32:39.905Z,62.34
2017-12-05T03:35:22.370Z,62.54
2017-12-05T03:37:57.379Z,63.07
2017-12-05T03:40:32.509Z,63.52
2017-12-05T03:43:04.268Z,63.04
2017-12-05T03:45:44.969Z,63.16
2017-12-05T03:48:17.820Z,63.29
2017-12-05T03:50:49.580Z,63.67
2017-12-05T03:53:22.680Z,62.46
2017-12-05T03:55:57.790Z,62.39
2017-12-05T03:58:29.248Z,62.84
2017-12-05T04:01:02.152Z,62.98
2017-12-05T04:03:35.353Z,63.73
2017-12-05T04:06:07.160Z,63.71
2017-12-05T04:08:36.684Z,62.61
2017-12-05T04:11:06.231Z,62.72
2017-12-05T04:13:37.268Z,62.75
2017-12-05T04:16:07.378Z,62.88
2017-12-05T04:18:39.968Z,62.82
2017-12-05T04:21:10.351Z,61.72
2017-12-05T04:23:42.230Z,62.14
2017-12-05T04:26:20.451Z,62.29
2017-12-05T04:28:50.361Z,62.00
2017-12-05T04:31:20.469Z,61.91
2017-12-05T04:33:50.351Z,62.23
2017-12-05T04:36:21.095Z,61.86
2017-12-05T04:38:52.532Z,61.96
2017-12-05T04:41:24.708Z,61.74
2017-12-05T04:43:54.707Z,63.06
2017-12-05T04:46:26.469Z,63.92
2017-12-05T04:48:56.227Z,63.42
2017-12-05T04:51:26.489Z,62.61
2017-12-05T04:53:57.431Z,62.70
2017-12-05T04:56:27.393Z,62.43
2017-12-05T04:58:57.284Z,62.82
2017-12-05T05:01:27.076Z,62.92
2017-12-05T05:03:56.636Z,62.54
2017-12-05T05:06:30.368Z,62.36
2017-12-05T05:09:00.339Z,62.84
2017-12-05T05:11:31.904Z,63.22
2017-12-05T05:14:02.728Z,63.43
2017-12-05T05:16:34.458Z,62.82
2017-12-05T05:19:05.294Z,62.83
2017-12-05T05:21:35.749Z,62.74
2017-12-05T05:24:24.312Z,63.34
2017-12-05T05:26:54.203Z,63.36
2017-12-05T05:29:25.441Z,63.81
2017-12-05T05:32:01.626Z,63.58
2017-12-05T05:34:33.090Z,63.12
2017-12-05T05:37:23.195Z,63.62
2017-12-05T05:40:02.862Z,64.42
2017-12-05T05:42:36.289Z,64.53
2017-12-05T05:45:10.558Z,63.99
2017-12-05T05:47:41.344Z,63.86
2017-12-05T05:50:14.017Z,64.21
2017-12-05T05:52:46.465Z,63.56
2017-12-05T05:55:23.375Z,63.31
2017-12-05T05:57:54.861Z,63.88
2017-12-05T06:00:29.176Z,63.40
2017-12-05T06:03:04.350Z,63.09
2017-12-05T06:05:36.260Z,63.41
2017-12-05T06:08:08.684Z,63.32
2017-12-05T06:10:39.982Z,63.05
2017-12-05T06:13:11.714Z,63.16
2017-12-05T06:15:59.175Z,62.94
2017-12-05T06:18:52.648Z,62.38
2017-12-05T06:21:29.386Z,62.56
2017-12-05T06:24:01.637Z,63.03
2017-12-05T06:26:34.804Z,63.39
2017-12-05T06:29:06.760Z,61.92
2017-12-05T06:31:39.315Z,61.63
2017-12-05T06:34:09.107Z,61.92
2017-12-05T06:36:41.779Z,62.51
2017-12-05T06:39:12.037Z,62.81
2017-12-05T06:41:44.413Z,63.62
2017-12-05T06:44:16.846Z,64.74
2017-12-05T06:46:48.229Z,65.39
2017-12-05T06:49:18.684Z,64.97
2017-12-05T06:51:48.116Z,64.31
2017-12-05T06:54:20.180Z,63.55
2017-12-05T06:56:50.275Z,63.04
2017-12-05T06:59:22.287Z,63.07
2017-12-05T07:01:53.174Z,63.49
2017-12-05T07:04:24.132Z,63.31
2017-12-05T07:06:54.456Z,63.91
2017-12-05T07:09:26.072Z,63.44
2017-12-05T07:11:57.211Z,63.79
2017-12-05T07:14:27.446Z,63.02
2017-12-05T07:16:58.064Z,63.24
2017-12-05T07:19:28.671Z,63.06
2017-12-05T07:21:59.665Z,62.76
2017-12-05T07:24:30.375Z,63.00
2017-12-05T07:27:00.558Z,62.99
2017-12-05T07:29:31.395Z,63.00
2017-12-05T07:32:02.283Z,62.63
2017-12-05T07:34:35.387Z,62.75
2017-12-05T07:37:07.065Z,62.39
2017-12-05T07:39:37.242Z,60.92
2017-12-05T07:42:11.201Z,61.15
2017-12-05T07:44:46.038Z,61.34
2017-12-05T07:47:16.214Z,61.06
2017-12-05T07:49:47.099Z,61.11
2017-12-05T07:52:17.577Z,60.63
2017-12-05T07:54:51.692Z,60.59
2017-12-05T07:57:21.780Z,60.90
2017-12-05T07:59:55.276Z,61.10
2017-12-05T08:02:26.456Z,61.36
2017-12-05T08:04:56.268Z,61.09
2017-12-05T08:07:30.542Z,61.01
2017-12-05T08:10:11.277Z,61.27
2017-12-05T08:12:42.636Z,61.50
2017-12-05T08:15:14.287Z,61.66
2017-12-05T08:17:46.575Z,60.89
2017-12-05T08:20:17.317Z,61.38
2017-12-05T08:22:47.891Z,61.55
2017-12-05T08:25:18.127Z,62.33
2017-12-05T08:27:48.472Z,61.87
2017-12-05T08:30:19.418Z,62.56
2017-12-05T08:32:49.425Z,61.73
2017-12-05T08:35:19.090Z,61.96
2017-12-05T08:37:50.380Z,61.42
2017-12-05T08:40:21.700Z,60.19
2017-12-05T08:42:52.480Z,60.07
2017-12-05T08:45:22.632Z,59.63
2017-12-05T08:47:57.776Z,59.30
2017-12-05T08:50:28.200Z,59.22
2017-12-05T08:53:01.174Z,58.86
2017-12-05T08:55:31.382Z,58.72
2017-12-05T08:58:01.047Z,58.56
2017-12-05T09:00:31.111Z,58.12
2017-12-05T09:03:00.976Z,58.45
2017-12-05T09:05:34.681Z,58.62
2017-12-05T09:08:04.643Z,57.93
2017-12-05T09:10:36.204Z,57.29
2017-12-05T09:13:07.155Z,56.87
2017-12-05T09:15:37.205Z,57.14
2017-12-05T09:18:08.240Z,57.07
2017-12-05T09:20:38.455Z,56.39
2017-12-05T09:23:09.685Z,56.47
2017-12-05T09:25:40.244Z,56.55
2017-12-05T09:28:10.314Z,56.74
2017-12-05T09:30:46.474Z,56.54
2017-12-05T09:33:16.375Z,56.38
2017-12-05T09:35:46.086Z,55.45
2017-12-05T09:38:17.625Z,55.63
2017-12-05T09:40:48.416Z,55.24
2017-12-05T09:43:19.761Z,55.03
2017-12-05T09:45:51.080Z,55.06
2017-12-05T09:48:25.306Z,55.34
2017-12-05T09:50:55.098Z,54.23
2017-12-05T09:53:24.700Z,54.98
2017-12-05T09:55:56.140Z,54.39
2017-12-05T09:58:26.400Z,53.58
2017-12-05T10:00:58.730Z,53.33
2017-12-05T10:03:28.230Z,53.09
2017-12-05T10:05:58.064Z,52.13
2017-12-05T10:08:28.723Z,51.51
2017-12-05T10:10:59.041Z,51.57
2017-12-05T10:13:29.145Z,51.24
2017-12-05T10:15:59.676Z,50.51
2017-12-05T10:18:29.255Z,50.36
2017-12-05T10:20:59.449Z,50.31
2017-12-05T10:23:29.695Z,49.96
2017-12-05T10:26:00.951Z,49.53
2017-12-05T10:28:32.727Z,49.21
2017-12-05T10:31:04.335Z,47.75
2017-12-05T10:33:37.063Z,48.69
2017-12-05T10:36:07.056Z,48.98
2017-12-05T10:38:37.197Z,47.95
2017-12-05T10:41:08.592Z,48.55
2017-12-05T10:46:17.759Z,47.47
2017-12-05T10:48:48.308Z,47.54
2017-12-05T10:51:18.200Z,46.48
2017-12-05T10:53:48.315Z,47.22
2017-12-05T10:56:18.450Z,47.30
2017-12-05T10:58:55.631Z,47.65
2017-12-05T11:01:28.476Z,47.30
2017-12-05T11:04:00.452Z,46.91
2017-12-05T11:06:31.614Z,46.89
2017-12-05T11:09:01.400Z,47.59
2017-12-05T11:11:32.101Z,47.17
2017-12-05T11:14:03.429Z,46.66
2017-12-05T11:16:34.525Z,46.75
2017-12-05T11:19:05.124Z,46.98
2017-12-05T11:21:40.417Z,46.44
2017-12-05T11:24:10.367Z,46.50
2017-12-05T11:26:42.367Z,45.75
2017-12-05T11:29:12.180Z,45.57
2017-12-05T11:31:42.140Z,45.60
2017-12-05T11:34:14.741Z,45.17
2017-12-05T11:36:48.130Z,45.77
2017-12-05T11:39:18.316Z,46.89
2017-12-05T11:41:48.795Z,46.76
2017-12-05T11:44:20.460Z,46.26
2017-12-05T11:46:50.278Z,46.73
2017-12-05T11:49:20.744Z,46.00
2017-12-05T11:51:50.452Z,46.06
2017-12-05T11:54:28.602Z,45.15
2017-12-05T11:56:58.156Z,46.16
2017-12-05T11:59:28.337Z,45.09
2017-12-05T12:01:59.163Z,45.35
2017-12-05T12:04:29.416Z,45.95
2017-12-05T12:06:59.462Z,46.03
2017-12-05T12:09:29.357Z,43.73
2017-12-05T12:12:00.626Z,43.56
2017-12-05T12:14:30.332Z,44.13
2017-12-05T12:17:00.239Z,43.29
2017-12-05T12:19:34.241Z,42.83
2017-12-05T12:22:04.822Z,43.35
2017-12-05T12:24:35.051Z,42.83
2017-12-05T12:27:06.795Z,42.95
2017-12-05T12:29:36.723Z,42.64
2017-12-05T12:32:08.096Z,42.22
2017-12-05T12:34:40.318Z,41.83
2017-12-05T12:37:11.287Z,42.98
2017-12-05T22:33:01.770Z,50.43
2017-12-05T22:35:33.552Z,52.17
2017-12-05T22:38:04.698Z,52.88
2017-12-05T22:40:36.402Z,53.61
2017-12-05T22:43:07.633Z,54.21
2017-12-05T22:45:40.177Z,54.85
2017-12-05T22:48:13.422Z,54.67
2017-12-05T22:50:44.604Z,54.23
2017-12-05T22:53:16.743Z,55.33
2017-12-05T22:55:48.362Z,55.59
2017-12-05T22:58:20.458Z,55.30
2017-12-05T23:01:03.264Z,55.94
2017-12-05T23:03:36.428Z,56.12
2017-12-05T23:06:14.969Z,56.09
2017-12-05T23:08:53.004Z,56.67
2017-12-05T23:11:28.134Z,56.19
2017-12-05T23:14:00.649Z,55.96
2017-12-05T23:16:32.198Z,56.73
2017-12-05T23:19:07.625Z,57.16
2017-12-05T23:21:42.358Z,56.94
2017-12-05T23:24:17.763Z,58.11
2017-12-05T23:26:55.607Z,57.89
2017-12-05T23:29:35.552Z,57.45
2017-12-05T23:32:08.438Z,56.73
2017-12-05T23:34:45.920Z,56.52
2017-12-05T23:37:27.467Z,56.63
2017-12-05T23:40:00.420Z,57.33
2017-12-05T23:42:37.180Z,58.35
2017-12-05T23:45:13.647Z,58.17
